createdAt,value
2023-05-17T00:00:10.615Z,11.50
2023-05-17T00:04:10.379Z,11.48
2023-05-17T00:08:10.279Z,11.47
2023-05-17T00:12:10.344Z,11.45
2023-05-17T00:20:11.064Z,11.34
2023-05-17T00:24:10.393Z,11.28
2023-05-17T00:28:10.325Z,11.01
2023-05-17T00:32:10.653Z,10.97
2023-05-17T00:36:10.659Z,10.96
2023-05-17T00:40:11.298Z,10.87
2023-05-17T00:44:10.546Z,10.88
2023-05-17T00:48:10.817Z,10.87
2023-05-17T00:56:10.906Z,10.92
2023-05-17T01:00:11.103Z,10.84
2023-05-17T01:04:10.694Z,10.88
2023-05-17T01:08:10.493Z,10.90
2023-05-17T01:12:22.186Z,10.94
2023-05-17T01:16:16.150Z,10.89
2023-05-17T01:20:16.813Z,10.85
2023-05-17T01:24:38.731Z,10.80
2023-05-17T01:28:11.500Z,10.74
2023-05-17T01:32:12.463Z,10.75
2023-05-17T01:36:10.463Z,10.74
2023-05-17T01:44:21.387Z,10.76
2023-05-17T01:48:19.524Z,10.74
2023-05-17T01:52:16.227Z,10.69
2023-05-17T01:56:15.374Z,10.63
2023-05-17T02:00:12.938Z,10.57
2023-05-17T02:04:10.995Z,10.55
2023-05-17T02:08:11.292Z,10.57
2023-05-17T02:12:10.602Z,10.53
2023-05-17T02:16:10.953Z,10.50
2023-05-17T02:20:10.741Z,10.47
2023-05-17T02:24:10.639Z,10.46
2023-05-17T02:28:10.605Z,10.45
2023-05-17T02:32:10.785Z,10.42
2023-05-17T02:36:10.538Z,10.43
2023-05-17T02:40:11.241Z,10.37
2023-05-17T02:44:10.713Z,10.33
2023-05-17T02:48:10.869Z,10.29
2023-05-17T02:52:10.842Z,10.23
2023-05-17T02:56:11.092Z,10.16
2023-05-17T03:00:11.159Z,10.08
2023-05-17T03:04:10.845Z,10.06
2023-05-17T03:08:10.837Z,9.99
2023-05-17T03:12:10.766Z,9.93
2023-05-17T03:16:11.059Z,9.85
2023-05-17T03:20:11.374Z,9.83
2023-05-17T03:24:10.796Z,9.76
2023-05-17T03:28:10.769Z,9.67
2023-05-17T03:32:10.860Z,9.61
2023-05-17T03:36:10.740Z,9.53
2023-05-17T03:40:11.248Z,9.54
2023-05-17T03:44:10.736Z,9.50
2023-05-17T03:48:10.870Z,9.48
2023-05-17T03:52:10.769Z,9.46
2023-05-17T03:56:11.017Z,9.51
2023-05-17T04:04:11.338Z,9.50
2023-05-17T04:08:10.812Z,9.39
2023-05-17T04:12:11.019Z,9.24
2023-05-17T04:16:11.092Z,9.08
2023-05-17T04:20:11.592Z,9.13
2023-05-17T04:28:11.560Z,9.14
2023-05-17T04:32:10.894Z,9.08
2023-05-17T04:36:11.026Z,9.00
2023-05-17T04:40:11.866Z,9.02
2023-05-17T04:44:11.468Z,9.03
2023-05-17T04:48:11.020Z,9.09
2023-05-17T04:52:11.035Z,9.04
2023-05-17T04:56:11.036Z,9.03
2023-05-17T05:00:13.066Z,9.13
2023-05-17T05:04:11.035Z,9.17
2023-05-17T05:08:11.108Z,9.19
2023-05-17T05:16:11.392Z,9.10
2023-05-17T05:20:11.471Z,8.94
2023-05-17T05:24:11.234Z,8.96
2023-05-17T05:36:11.218Z,9.05
2023-05-17T05:40:12.192Z,9.11
2023-05-17T05:44:11.252Z,9.18
2023-05-17T05:48:11.379Z,9.21
2023-05-17T05:52:11.218Z,9.33
2023-05-17T05:56:11.261Z,9.48
2023-05-17T06:00:12.066Z,9.61
2023-05-17T06:04:11.137Z,9.76
2023-05-17T06:08:11.268Z,9.91
2023-05-17T06:12:11.310Z,10.02
2023-05-17T06:16:11.441Z,10.13
2023-05-17T06:20:11.508Z,10.21
2023-05-17T06:24:11.474Z,10.30
2023-05-17T06:28:11.446Z,10.40
2023-05-17T06:32:11.184Z,10.53
2023-05-17T06:36:11.299Z,10.61
2023-05-17T06:40:31.674Z,10.69
2023-05-17T06:44:11.277Z,10.78
2023-05-17T06:48:11.944Z,10.86
2023-05-17T06:52:11.576Z,10.92
2023-05-17T06:56:11.421Z,11.03
2023-05-17T07:00:12.126Z,11.12
2023-05-17T07:04:11.466Z,11.23
2023-05-17T07:08:11.518Z,11.34
2023-05-17T07:12:11.478Z,11.36
2023-05-17T07:16:11.378Z,11.44
2023-05-17T07:20:12.369Z,11.54
2023-05-17T07:24:11.381Z,11.62
2023-05-17T07:28:11.528Z,11.74
2023-05-17T07:32:11.359Z,11.86
2023-05-17T07:36:17.539Z,11.96
2023-05-17T07:40:11.741Z,12.06
2023-05-17T07:44:11.813Z,12.11
2023-05-17T07:48:11.602Z,12.22
2023-05-17T07:52:11.802Z,12.30
2023-05-17T07:56:11.430Z,12.38
2023-05-17T08:00:12.797Z,12.49
2023-05-17T08:04:31.675Z,12.59
2023-05-17T08:08:11.720Z,12.73
2023-05-17T08:12:11.522Z,12.86
2023-05-17T08:16:14.034Z,12.95
2023-05-17T08:20:12.097Z,13.02
2023-05-17T08:24:11.850Z,13.06
2023-05-17T08:28:11.752Z,13.09
2023-05-17T08:32:11.716Z,13.18
2023-05-17T08:36:11.514Z,13.21
2023-05-17T08:40:13.806Z,13.32
2023-05-17T08:44:13.699Z,13.43
2023-05-17T08:48:12.016Z,13.53
2023-05-17T08:52:13.180Z,13.63
2023-05-17T08:56:14.818Z,13.76
2023-05-17T09:00:18.882Z,13.82
2023-05-17T09:04:12.093Z,13.91
2023-05-17T09:08:12.985Z,14.06
2023-05-17T09:12:26.641Z,14.27
2023-05-17T09:16:35.550Z,14.40
2023-05-17T09:20:11.906Z,14.43
2023-05-17T09:24:12.089Z,14.39
2023-05-17T09:28:12.113Z,14.49
2023-05-17T09:32:13.072Z,14.42
2023-05-17T09:36:15.694Z,14.55
2023-05-17T09:40:22.225Z,14.66
2023-05-17T09:44:13.218Z,14.74
2023-05-17T09:48:13.859Z,14.71
2023-05-17T09:52:17.046Z,14.79
2023-05-17T09:56:12.286Z,14.87
2023-05-17T10:00:16.661Z,14.92
2023-05-17T10:04:12.761Z,14.91
2023-05-17T10:08:14.013Z,14.89
2023-05-17T10:12:14.993Z,14.87
2023-05-17T10:16:12.456Z,14.99
2023-05-17T10:20:13.923Z,15.21
2023-05-17T10:24:12.973Z,15.37
2023-05-17T10:28:15.050Z,15.60
2023-05-17T10:32:13.406Z,15.75
2023-05-17T10:36:14.619Z,15.91
2023-05-17T10:40:12.593Z,16.00
2023-05-17T10:44:15.028Z,16.09
2023-05-17T10:48:15.124Z,16.17
2023-05-17T10:52:12.968Z,16.32
2023-05-17T10:56:13.229Z,16.41
2023-05-17T11:00:20.155Z,16.44
2023-05-17T11:04:21.557Z,16.54
2023-05-17T11:08:13.324Z,16.58
2023-05-17T11:12:13.841Z,16.40
2023-05-17T11:16:17.792Z,16.28
2023-05-17T11:20:31.460Z,16.22
2023-05-17T11:24:55.363Z,16.19
2023-05-17T11:28:17.814Z,16.18
2023-05-17T11:32:12.071Z,16.32
2023-05-17T11:36:19.088Z,16.56
2023-05-17T11:40:13.775Z,16.73
2023-05-17T11:44:13.059Z,16.71
2023-05-17T11:48:13.405Z,16.70
2023-05-17T11:52:15.700Z,16.83
2023-05-17T11:56:12.260Z,16.96
2023-05-17T12:00:15.583Z,17.04
2023-05-17T12:04:13.076Z,17.12
2023-05-17T12:08:14.607Z,17.05
2023-05-17T12:12:12.568Z,17.04
2023-05-17T12:16:15.979Z,17.09
2023-05-17T12:20:12.899Z,17.40
2023-05-17T12:24:13.112Z,17.59
2023-05-17T12:28:13.389Z,17.41
2023-05-17T12:32:12.464Z,17.26
2023-05-17T12:36:13.453Z,17.16
2023-05-17T12:40:12.614Z,17.11
2023-05-17T12:44:16.160Z,17.21
2023-05-17T12:48:12.483Z,17.28
2023-05-17T12:52:12.229Z,17.42
2023-05-17T12:56:15.756Z,17.69
2023-05-17T13:00:13.566Z,17.88
2023-05-17T13:04:13.585Z,18.18
2023-05-17T13:08:20.255Z,18.42
2023-05-17T13:12:19.088Z,18.54
2023-05-17T13:16:12.355Z,18.50
2023-05-17T13:20:28.360Z,18.56
2023-05-17T13:24:13.147Z,18.73
2023-05-17T13:28:12.517Z,18.88
2023-05-17T13:32:12.858Z,19.00
2023-05-17T13:36:12.817Z,18.82
2023-05-17T13:40:13.240Z,18.67
2023-05-17T13:44:12.410Z,18.58
2023-05-17T13:48:12.652Z,18.50
2023-05-17T13:52:12.808Z,18.46
2023-05-17T13:56:12.514Z,18.43
2023-05-17T14:00:13.759Z,18.41
2023-05-17T14:04:25.045Z,18.49
2023-05-17T14:08:12.909Z,18.37
2023-05-17T14:12:12.708Z,18.25
2023-05-17T14:16:13.256Z,18.31
2023-05-17T14:20:13.273Z,18.34
2023-05-17T14:24:12.673Z,18.31
2023-05-17T14:28:12.668Z,18.25
2023-05-17T14:36:14.198Z,18.17
2023-05-17T14:40:12.776Z,18.13
2023-05-17T14:44:12.824Z,18.10
2023-05-17T14:48:12.984Z,18.12
2023-05-17T14:52:12.949Z,18.21
2023-05-17T14:56:14.279Z,18.32
2023-05-17T15:00:12.993Z,18.39
2023-05-17T15:04:13.528Z,18.47
2023-05-17T15:08:13.262Z,18.46
2023-05-17T15:12:13.870Z,18.45
2023-05-17T15:16:12.906Z,18.48
2023-05-17T15:20:13.489Z,18.67
2023-05-17T15:24:14.411Z,18.99
2023-05-17T15:28:13.102Z,19.21
2023-05-17T15:32:12.850Z,19.36
2023-05-17T15:36:15.206Z,19.63
2023-05-17T15:40:14.002Z,19.78
2023-05-17T15:44:12.768Z,19.70
2023-05-17T15:48:12.904Z,19.58
2023-05-17T15:52:17.314Z,19.53
2023-05-17T15:56:14.909Z,19.52
2023-05-17T16:00:13.483Z,19.55
2023-05-17T16:08:13.118Z,19.53
2023-05-17T16:12:13.041Z,19.67
2023-05-17T16:16:13.740Z,19.69
2023-05-17T16:20:12.839Z,19.76
2023-05-17T16:24:13.154Z,19.99
2023-05-17T16:28:12.848Z,20.11
2023-05-17T16:32:13.191Z,20.12
2023-05-17T16:40:13.360Z,20.14
2023-05-17T16:44:12.967Z,20.13
2023-05-17T16:48:13.981Z,20.01
2023-05-17T16:52:12.970Z,19.81
2023-05-17T16:56:13.279Z,19.53
2023-05-17T17:00:13.505Z,19.27
2023-05-17T17:04:13.213Z,19.07
2023-05-17T17:08:12.999Z,18.79
2023-05-17T17:12:23.536Z,18.66
2023-05-17T17:16:13.528Z,18.60
2023-05-17T17:24:13.200Z,18.56
2023-05-17T17:28:13.121Z,18.49
2023-05-17T17:32:13.768Z,18.43
2023-05-17T17:36:13.055Z,18.34
2023-05-17T17:40:13.256Z,18.26
2023-05-17T17:44:14.294Z,18.20
2023-05-17T17:48:13.448Z,18.18
2023-05-17T17:52:13.199Z,18.08
2023-05-17T17:56:13.495Z,17.99
2023-05-17T18:00:14.992Z,17.91
2023-05-17T18:04:15.294Z,17.83
2023-05-17T18:12:13.495Z,17.81
2023-05-17T18:16:13.366Z,17.77
2023-05-17T18:20:13.357Z,17.74
2023-05-17T18:24:13.259Z,17.72
2023-05-17T18:28:13.235Z,17.70
2023-05-17T18:32:13.374Z,17.63
2023-05-17T18:36:13.463Z,17.58
2023-05-17T18:40:13.717Z,17.52
2023-05-17T18:44:15.319Z,17.47
2023-05-17T18:48:13.502Z,17.43
2023-05-17T18:52:14.122Z,17.35
2023-05-17T18:56:19.949Z,17.27
2023-05-17T19:00:14.014Z,17.20
2023-05-17T19:04:13.555Z,17.12
2023-05-17T19:08:13.741Z,17.04
2023-05-17T19:12:13.357Z,16.94
2023-05-17T19:16:14.573Z,16.81
2023-05-17T19:20:13.509Z,16.72
2023-05-17T19:24:13.531Z,16.63
2023-05-17T19:28:13.468Z,16.52
2023-05-17T19:32:13.877Z,16.44
2023-05-17T19:36:13.585Z,16.37
2023-05-17T19:40:13.867Z,16.26
2023-05-17T19:44:13.439Z,16.18
2023-05-17T19:48:13.675Z,16.11
2023-05-17T19:52:14.338Z,16.07
2023-05-17T19:56:14.058Z,15.97
2023-05-17T20:00:14.331Z,15.88
2023-05-17T20:04:13.884Z,15.80
2023-05-17T20:08:14.667Z,15.72
2023-05-17T20:12:14.574Z,15.62
2023-05-17T20:16:13.802Z,15.57
2023-05-17T20:20:13.681Z,15.48
2023-05-17T20:24:13.654Z,15.41
2023-05-17T20:28:13.900Z,15.38
2023-05-17T20:32:13.755Z,15.34
2023-05-17T20:36:13.862Z,15.31
2023-05-17T20:40:13.675Z,15.33
2023-05-17T20:44:17.705Z,15.27
2023-05-17T20:48:13.611Z,15.17
2023-05-17T20:52:14.974Z,15.13
2023-05-17T20:56:14.058Z,15.06
2023-05-17T21:00:15.962Z,15.03
2023-05-17T21:04:13.884Z,14.97
2023-05-17T21:08:13.920Z,14.93
2023-05-17T21:12:13.803Z,14.89
2023-05-17T21:16:14.818Z,14.86
2023-05-17T21:20:13.925Z,14.83
2023-05-17T21:24:13.930Z,14.80
2023-05-17T21:28:13.725Z,14.73
2023-05-17T21:32:13.963Z,14.71
2023-05-17T21:36:13.850Z,14.66
2023-05-17T21:40:13.975Z,14.61
2023-05-17T21:44:13.897Z,14.56
2023-05-17T21:48:14.124Z,14.49
2023-05-17T21:50:36.815Z,14.49
2023-05-17T21:52:14.000Z,14.43
2023-05-17T21:56:14.165Z,14.38
2023-05-17T22:00:14.652Z,14.28
2023-05-17T22:04:14.115Z,14.22
2023-05-17T22:08:13.871Z,14.21
2023-05-17T22:12:14.102Z,14.15
2023-05-17T22:16:14.023Z,14.11
2023-05-17T22:20:15.924Z,14.08
2023-05-17T22:24:14.082Z,14.07
2023-05-17T22:28:14.133Z,14.02
2023-05-17T22:32:14.863Z,13.95
2023-05-17T22:36:17.984Z,13.93
2023-05-17T22:40:14.088Z,13.89
2023-05-17T22:44:14.147Z,13.86
2023-05-17T22:48:14.080Z,13.83
2023-05-17T22:52:16.311Z,13.80
2023-05-17T22:56:14.017Z,13.78
2023-05-17T23:00:15.338Z,13.75
2023-05-17T23:04:14.165Z,13.72
2023-05-17T23:08:14.968Z,13.71
2023-05-17T23:12:16.349Z,13.65
2023-05-17T23:16:14.245Z,13.62
2023-05-17T23:20:14.090Z,13.58
2023-05-17T23:24:14.516Z,13.52
2023-05-17T23:28:14.087Z,13.50
2023-05-17T23:32:14.421Z,13.47
2023-05-17T23:36:14.179Z,13.45
2023-05-17T23:40:14.671Z,13.44
2023-05-17T23:44:16.855Z,13.40
2023-05-17T23:48:15.076Z,13.37
2023-05-17T23:52:17.691Z,13.34
